sensor_id;sensor_type;location;lat;lon;timestamp;temperature;humidity
15262;DHT22;7733;51.554;13.590;2023-07-31T00:01:18;15.70;99.90
15262;DHT22;7733;51.554;13.590;2023-07-31T00:03:45;15.70;99.90
15262;DHT22;7733;51.554;13.590;2023-07-31T00:06:12;15.60;99.90
15262;DHT22;7733;51.554;13.590;2023-07-31T00:08:37;15.60;99.90
15262;DHT22;7733;51.554;13.590;2023-07-31T00:11:03;15.50;99.90
15262;DHT22;7733;51.554;13.590;2023-07-31T00:13:29;15.50;99.90
15262;DHT22;7733;51.554;13.590;2023-07-31T00:15:55;15.50;99.90
15262;DHT22;7733;51.554;13.590;2023-07-31T00:18:20;15.40;99.90
15262;DHT22;7733;51.554;13.590;2023-07-31T00:20:46;15.40;99.90
15262;DHT22;7733;51.554;13.590;2023-07-31T00:23:12;15.50;99.90
15262;DHT22;7733;51.554;13.590;2023-07-31T00:25:38;15.40;99.90
15262;DHT22;7733;51.554;13.590;2023-07-31T00:28:04;15.40;99.90
15262;DHT22;7733;51.554;13.590;2023-07-31T00:30:29;15.30;99.90
15262;DHT22;7733;51.554;13.590;2023-07-31T00:32:55;15.30;99.90
15262;DHT22;7733;51.554;13.590;2023-07-31T00:35:21;15.30;99.90
15262;DHT22;7733;51.554;13.590;2023-07-31T00:37:47;15.20;99.90
15262;DHT22;7733;51.554;13.590;2023-07-31T00:40:12;15.30;99.90
15262;DHT22;7733;51.554;13.590;2023-07-31T00:42:39;15.30;99.90
15262;DHT22;7733;51.554;13.590;2023-07-31T00:45:05;15.30;99.90
15262;DHT22;7733;51.554;13.590;2023-07-31T00:47:31;15.20;99.90
15262;DHT22;7733;51.554;13.590;2023-07-31T00:49:57;15.20;99.90
15262;DHT22;7733;51.554;13.590;2023-07-31T00:52:23;15.30;99.90
15262;DHT22;7733;51.554;13.590;2023-07-31T00:54:49;15.20;99.90
15262;DHT22;7733;51.554;13.590;2023-07-31T00:57:15;15.20;99.90
15262;DHT22;7733;51.554;13.590;2023-07-31T00:59:41;15.20;99.90
15262;DHT22;7733;51.554;13.590;2023-07-31T01:02:07;15.30;99.90
15262;DHT22;7733;51.554;13.590;2023-07-31T01:04:33;15.30;99.90
15262;DHT22;7733;51.554;13.590;2023-07-31T01:07:05;15.30;99.90
15262;DHT22;7733;51.554;13.590;2023-07-31T01:09:52;15.30;99.90
15262;DHT22;7733;51.554;13.590;2023-07-31T01:12:30;15.40;99.90
15262;DHT22;7733;51.554;13.590;2023-07-31T01:15:08;15.40;99.90
15262;DHT22;7733;51.554;13.590;2023-07-31T01:17:38;15.30;99.90
15262;DHT22;7733;51.554;13.590;2023-07-31T01:20:17;15.30;99.90
15262;DHT22;7733;51.554;13.590;2023-07-31T01:26:15;15.20;99.90
15262;DHT22;7733;51.554;13.590;2023-07-31T01:28:55;15.10;99.90
15262;DHT22;7733;51.554;13.590;2023-07-31T01:31:26;15.10;99.90
15262;DHT22;7733;51.554;13.590;2023-07-31T01:33:57;15.10;99.90
15262;DHT22;7733;51.554;13.590;2023-07-31T01:36:26;15.10;99.90
15262;DHT22;7733;51.554;13.590;2023-07-31T01:38:52;15.20;99.90
15262;DHT22;7733;51.554;13.590;2023-07-31T01:41:23;15.30;99.90
15262;DHT22;7733;51.554;13.590;2023-07-31T01:43:49;15.30;99.90
15262;DHT22;7733;51.554;13.590;2023-07-31T01:46:14;15.30;99.90
15262;DHT22;7733;51.554;13.590;2023-07-31T01:48:40;15.40;99.90
15262;DHT22;7733;51.554;13.590;2023-07-31T01:51:06;15.50;99.90
15262;DHT22;7733;51.554;13.590;2023-07-31T01:53:32;15.50;99.90
15262;DHT22;7733;51.554;13.590;2023-07-31T01:55:57;15.50;99.90
15262;DHT22;7733;51.554;13.590;2023-07-31T01:58:23;15.50;99.90
15262;DHT22;7733;51.554;13.590;2023-07-31T02:00:49;15.50;99.90
15262;DHT22;7733;51.554;13.590;2023-07-31T02:03:14;15.50;99.90
15262;DHT22;7733;51.554;13.590;2023-07-31T02:05:50;15.40;99.90
15262;DHT22;7733;51.554;13.590;2023-07-31T02:08:16;15.40;99.90
15262;DHT22;7733;51.554;13.590;2023-07-31T02:10:42;15.40;99.90
15262;DHT22;7733;51.554;13.590;2023-07-31T02:13:08;15.40;99.90
15262;DHT22;7733;51.554;13.590;2023-07-31T02:15:34;15.40;99.90
15262;DHT22;7733;51.554;13.590;2023-07-31T02:18:00;15.40;99.90
15262;DHT22;7733;51.554;13.590;2023-07-31T02:20:26;15.40;99.90
15262;DHT22;7733;51.554;13.590;2023-07-31T02:22:52;15.40;99.90
15262;DHT22;7733;51.554;13.590;2023-07-31T02:25:17;15.40;99.90
15262;DHT22;7733;51.554;13.590;2023-07-31T02:27:43;15.40;99.90
15262;DHT22;7733;51.554;13.590;2023-07-31T02:30:09;15.40;99.90
15262;DHT22;7733;51.554;13.590;2023-07-31T02:32:35;15.50;99.90
15262;DHT22;7733;51.554;13.590;2023-07-31T02:35:01;15.50;99.90
15262;DHT22;7733;51.554;13.590;2023-07-31T02:37:27;15.60;99.90
15262;DHT22;7733;51.554;13.590;2023-07-31T02:39:54;15.50;99.90
15262;DHT22;7733;51.554;13.590;2023-07-31T02:42:20;15.60;99.90
15262;DHT22;7733;51.554;13.590;2023-07-31T02:44:46;15.60;99.90
15262;DHT22;7733;51.554;13.590;2023-07-31T02:47:12;15.50;99.90
15262;DHT22;7733;51.554;13.590;2023-07-31T02:49:38;15.60;99.90
15262;DHT22;7733;51.554;13.590;2023-07-31T02:52:04;15.60;99.90
15262;DHT22;7733;51.554;13.590;2023-07-31T02:54:29;15.60;99.90
15262;DHT22;7733;51.554;13.590;2023-07-31T02:56:55;15.60;99.90
15262;DHT22;7733;51.554;13.590;2023-07-31T02:59:21;15.60;99.90
15262;DHT22;7733;51.554;13.590;2023-07-31T03:01:47;15.60;99.90
15262;DHT22;7733;51.554;13.590;2023-07-31T03:04:12;15.70;99.90
15262;DHT22;7733;51.554;13.590;2023-07-31T03:06:38;15.60;99.90
15262;DHT22;7733;51.554;13.590;2023-07-31T03:09:04;15.70;99.90
15262;DHT22;7733;51.554;13.590;2023-07-31T03:11:29;15.60;99.90
15262;DHT22;7733;51.554;13.590;2023-07-31T03:13:55;15.60;99.90
15262;DHT22;7733;51.554;13.590;2023-07-31T03:16:21;15.70;99.90
15262;DHT22;7733;51.554;13.590;2023-07-31T03:18:46;15.70;99.90
15262;DHT22;7733;51.554;13.590;2023-07-31T03:21:12;15.60;99.90
15262;DHT22;7733;51.554;13.590;2023-07-31T03:23:40;15.60;99.90
15262;DHT22;7733;51.554;13.590;2023-07-31T03:26:07;15.60;99.90
15262;DHT22;7733;51.554;13.590;2023-07-31T03:28:33;15.60;99.90
15262;DHT22;7733;51.554;13.590;2023-07-31T03:30:59;15.60;99.90
15262;DHT22;7733;51.554;13.590;2023-07-31T03:33:25;15.70;99.90
15262;DHT22;7733;51.554;13.590;2023-07-31T03:35:51;15.60;99.90
15262;DHT22;7733;51.554;13.590;2023-07-31T03:38:17;15.60;99.90
15262;DHT22;7733;51.554;13.590;2023-07-31T03:40:43;15.60;99.90
15262;DHT22;7733;51.554;13.590;2023-07-31T03:43:09;15.50;99.90
15262;DHT22;7733;51.554;13.590;2023-07-31T03:45:35;15.40;99.90
15262;DHT22;7733;51.554;13.590;2023-07-31T03:48:01;15.40;99.90
15262;DHT22;7733;51.554;13.590;2023-07-31T03:50:27;15.40;99.90
15262;DHT22;7733;51.554;13.590;2023-07-31T03:52:52;15.40;99.90
15262;DHT22;7733;51.554;13.590;2023-07-31T03:55:18;15.30;99.90
15262;DHT22;7733;51.554;13.590;2023-07-31T03:57:44;15.30;99.90
15262;DHT22;7733;51.554;13.590;2023-07-31T04:00:10;15.30;99.90
15262;DHT22;7733;51.554;13.590;2023-07-31T04:02:36;15.30;99.90
15262;DHT22;7733;51.554;13.590;2023-07-31T04:05:02;15.30;99.90
15262;DHT22;7733;51.554;13.590;2023-07-31T04:07:28;15.30;99.90
15262;DHT22;7733;51.554;13.590;2023-07-31T04:09:53;15.30;99.90
15262;DHT22;7733;51.554;13.590;2023-07-31T04:12:19;15.40;99.90
15262;DHT22;7733;51.554;13.590;2023-07-31T04:14:45;15.40;99.90
15262;DHT22;7733;51.554;13.590;2023-07-31T04:17:10;15.40;99.90
15262;DHT22;7733;51.554;13.590;2023-07-31T04:19:36;15.40;99.90
15262;DHT22;7733;51.554;13.590;2023-07-31T04:22:02;15.40;99.90
15262;DHT22;7733;51.554;13.590;2023-07-31T04:24:28;15.40;99.90
15262;DHT22;7733;51.554;13.590;2023-07-31T04:26:53;15.40;99.90
15262;DHT22;7733;51.554;13.590;2023-07-31T04:29:19;15.40;99.90
15262;DHT22;7733;51.554;13.590;2023-07-31T04:31:45;15.60;99.90
15262;DHT22;7733;51.554;13.590;2023-07-31T04:34:11;15.60;99.90
15262;DHT22;7733;51.554;13.590;2023-07-31T04:36:37;15.60;99.90
15262;DHT22;7733;51.554;13.590;2023-07-31T04:39:03;15.60;99.90
15262;DHT22;7733;51.554;13.590;2023-07-31T04:41:29;15.70;99.90
15262;DHT22;7733;51.554;13.590;2023-07-31T04:43:55;15.70;99.90
15262;DHT22;7733;51.554;13.590;2023-07-31T04:48:48;15.50;99.90
15262;DHT22;7733;51.554;13.590;2023-07-31T04:51:14;15.60;99.90
15262;DHT22;7733;51.554;13.590;2023-07-31T04:53:40;15.50;99.90
15262;DHT22;7733;51.554;13.590;2023-07-31T04:56:05;15.60;99.90
15262;DHT22;7733;51.554;13.590;2023-07-31T04:58:31;15.60;99.90
15262;DHT22;7733;51.554;13.590;2023-07-31T05:00:57;15.60;99.90
15262;DHT22;7733;51.554;13.590;2023-07-31T05:03:22;15.70;99.90
15262;DHT22;7733;51.554;13.590;2023-07-31T05:05:49;15.80;99.90
15262;DHT22;7733;51.554;13.590;2023-07-31T05:08:15;15.80;99.90
15262;DHT22;7733;51.554;13.590;2023-07-31T05:10:43;15.80;99.90
15262;DHT22;7733;51.554;13.590;2023-07-31T05:13:09;15.80;99.90
15262;DHT22;7733;51.554;13.590;2023-07-31T05:15:34;15.90;99.90
15262;DHT22;7733;51.554;13.590;2023-07-31T05:18:00;15.90;99.90
15262;DHT22;7733;51.554;13.590;2023-07-31T05:20:26;15.80;99.90
15262;DHT22;7733;51.554;13.590;2023-07-31T05:22:53;15.90;99.90
15262;DHT22;7733;51.554;13.590;2023-07-31T05:25:18;15.90;99.90
15262;DHT22;7733;51.554;13.590;2023-07-31T05:27:44;15.90;99.90
15262;DHT22;7733;51.554;13.590;2023-07-31T05:30:10;16.00;99.90
15262;DHT22;7733;51.554;13.590;2023-07-31T05:32:36;16.00;99.90
15262;DHT22;7733;51.554;13.590;2023-07-31T05:35:02;16.00;99.90
15262;DHT22;7733;51.554;13.590;2023-07-31T05:37:28;16.00;99.90
15262;DHT22;7733;51.554;13.590;2023-07-31T05:39:53;16.00;99.90
15262;DHT22;7733;51.554;13.590;2023-07-31T05:42:19;16.00;99.90
15262;DHT22;7733;51.554;13.590;2023-07-31T05:44:45;16.10;99.90
15262;DHT22;7733;51.554;13.590;2023-07-31T05:47:10;16.10;99.90
15262;DHT22;7733;51.554;13.590;2023-07-31T05:49:36;16.10;99.90
15262;DHT22;7733;51.554;13.590;2023-07-31T05:52:02;16.10;99.90
15262;DHT22;7733;51.554;13.590;2023-07-31T05:54:28;16.20;99.90
15262;DHT22;7733;51.554;13.590;2023-07-31T05:56:53;16.20;99.90
15262;DHT22;7733;51.554;13.590;2023-07-31T05:59:19;16.10;99.90
15262;DHT22;7733;51.554;13.590;2023-07-31T06:01:45;16.20;99.90
15262;DHT22;7733;51.554;13.590;2023-07-31T06:04:10;16.20;99.90
15262;DHT22;7733;51.554;13.590;2023-07-31T06:06:36;16.10;99.90
15262;DHT22;7733;51.554;13.590;2023-07-31T06:09:02;16.20;99.90
15262;DHT22;7733;51.554;13.590;2023-07-31T06:11:29;16.20;99.90
15262;DHT22;7733;51.554;13.590;2023-07-31T06:13:55;16.20;99.90
15262;DHT22;7733;51.554;13.590;2023-07-31T06:16:20;16.10;99.90
15262;DHT22;7733;51.554;13.590;2023-07-31T06:18:47;16.00;99.90
15262;DHT22;7733;51.554;13.590;2023-07-31T06:21:13;16.00;99.90
15262;DHT22;7733;51.554;13.590;2023-07-31T06:23:39;16.00;99.90
15262;DHT22;7733;51.554;13.590;2023-07-31T06:26:04;15.90;99.90
15262;DHT22;7733;51.554;13.590;2023-07-31T06:28:31;16.00;99.90
15262;DHT22;7733;51.554;13.590;2023-07-31T06:30:58;15.80;99.90
15262;DHT22;7733;51.554;13.590;2023-07-31T06:33:24;15.90;99.90
15262;DHT22;7733;51.554;13.590;2023-07-31T06:35:50;15.90;99.90
15262;DHT22;7733;51.554;13.590;2023-07-31T06:38:21;15.90;99.90
15262;DHT22;7733;51.554;13.590;2023-07-31T06:40:48;15.90;99.90
15262;DHT22;7733;51.554;13.590;2023-07-31T06:43:14;15.90;99.90
15262;DHT22;7733;51.554;13.590;2023-07-31T06:45:40;15.90;99.90
15262;DHT22;7733;51.554;13.590;2023-07-31T06:48:05;15.90;99.90
15262;DHT22;7733;51.554;13.590;2023-07-31T06:50:32;16.00;99.90
15262;DHT22;7733;51.554;13.590;2023-07-31T06:52:58;16.10;99.90
15262;DHT22;7733;51.554;13.590;2023-07-31T06:55:25;16.10;99.90
15262;DHT22;7733;51.554;13.590;2023-07-31T06:57:53;16.00;99.90
15262;DHT22;7733;51.554;13.590;2023-07-31T07:00:21;16.00;99.90
15262;DHT22;7733;51.554;13.590;2023-07-31T07:02:49;16.10;99.90
15262;DHT22;7733;51.554;13.590;2023-07-31T07:05:16;16.10;99.90
15262;DHT22;7733;51.554;13.590;2023-07-31T07:07:43;16.20;99.90
15262;DHT22;7733;51.554;13.590;2023-07-31T07:10:09;16.10;99.90
15262;DHT22;7733;51.554;13.590;2023-07-31T07:12:35;16.10;99.90
15262;DHT22;7733;51.554;13.590;2023-07-31T07:15:01;16.00;99.90
15262;DHT22;7733;51.554;13.590;2023-07-31T07:17:29;16.00;99.90
15262;DHT22;7733;51.554;13.590;2023-07-31T07:19:59;16.10;99.90
15262;DHT22;7733;51.554;13.590;2023-07-31T07:22:25;16.10;99.90
15262;DHT22;7733;51.554;13.590;2023-07-31T07:24:52;16.10;99.90
15262;DHT22;7733;51.554;13.590;2023-07-31T07:27:18;16.20;99.90
15262;DHT22;7733;51.554;13.590;2023-07-31T07:29:45;16.20;99.90
15262;DHT22;7733;51.554;13.590;2023-07-31T07:32:11;16.20;99.90
15262;DHT22;7733;51.554;13.590;2023-07-31T07:34:37;16.20;99.90
15262;DHT22;7733;51.554;13.590;2023-07-31T07:37:03;16.30;99.90
15262;DHT22;7733;51.554;13.590;2023-07-31T07:39:29;16.30;99.90
15262;DHT22;7733;51.554;13.590;2023-07-31T07:41:55;16.40;99.90
15262;DHT22;7733;51.554;13.590;2023-07-31T07:44:21;16.50;99.90
15262;DHT22;7733;51.554;13.590;2023-07-31T07:46:47;16.50;99.90
15262;DHT22;7733;51.554;13.590;2023-07-31T07:49:12;16.60;99.90
15262;DHT22;7733;51.554;13.590;2023-07-31T07:51:38;16.60;99.90
15262;DHT22;7733;51.554;13.590;2023-07-31T07:54:04;16.70;99.90
15262;DHT22;7733;51.554;13.590;2023-07-31T07:56:29;16.70;99.90
15262;DHT22;7733;51.554;13.590;2023-07-31T07:58:55;16.90;99.90
15262;DHT22;7733;51.554;13.590;2023-07-31T08:01:21;16.90;99.90
15262;DHT22;7733;51.554;13.590;2023-07-31T08:03:47;16.90;99.90
15262;DHT22;7733;51.554;13.590;2023-07-31T08:06:14;16.80;99.90
15262;DHT22;7733;51.554;13.590;2023-07-31T08:08:40;16.90;99.90
15262;DHT22;7733;51.554;13.590;2023-07-31T08:11:06;17.00;99.90
15262;DHT22;7733;51.554;13.590;2023-07-31T08:13:32;17.00;99.90
15262;DHT22;7733;51.554;13.590;2023-07-31T08:15:57;17.00;99.90
15262;DHT22;7733;51.554;13.590;2023-07-31T08:18:23;17.00;99.90
15262;DHT22;7733;51.554;13.590;2023-07-31T08:20:50;17.00;99.90
15262;DHT22;7733;51.554;13.590;2023-07-31T08:23:16;17.10;99.90
15262;DHT22;7733;51.554;13.590;2023-07-31T08:25:42;17.20;99.90
15262;DHT22;7733;51.554;13.590;2023-07-31T08:28:07;17.20;99.90
15262;DHT22;7733;51.554;13.590;2023-07-31T08:30:33;17.20;99.90
15262;DHT22;7733;51.554;13.590;2023-07-31T08:32:59;17.20;99.90
15262;DHT22;7733;51.554;13.590;2023-07-31T08:35:26;17.30;99.90
15262;DHT22;7733;51.554;13.590;2023-07-31T08:37:53;17.30;99.90
15262;DHT22;7733;51.554;13.590;2023-07-31T08:40:19;17.40;99.90
15262;DHT22;7733;51.554;13.590;2023-07-31T08:42:48;17.40;99.90
15262;DHT22;7733;51.554;13.590;2023-07-31T08:45:16;17.40;99.90
15262;DHT22;7733;51.554;13.590;2023-07-31T08:47:48;17.50;99.90
15262;DHT22;7733;51.554;13.590;2023-07-31T08:50:18;17.40;99.90
15262;DHT22;7733;51.554;13.590;2023-07-31T08:52:46;17.50;99.90
15262;DHT22;7733;51.554;13.590;2023-07-31T08:55:13;17.50;99.90
15262;DHT22;7733;51.554;13.590;2023-07-31T08:57:39;17.50;99.90
15262;DHT22;7733;51.554;13.590;2023-07-31T09:00:07;17.60;99.90
15262;DHT22;7733;51.554;13.590;2023-07-31T09:02:45;17.70;99.90
15262;DHT22;7733;51.554;13.590;2023-07-31T09:05:22;17.70;99.90
15262;DHT22;7733;51.554;13.590;2023-07-31T09:07:50;17.80;99.90
15262;DHT22;7733;51.554;13.590;2023-07-31T09:10:16;17.80;99.90
15262;DHT22;7733;51.554;13.590;2023-07-31T09:12:42;18.00;99.90
15262;DHT22;7733;51.554;13.590;2023-07-31T09:15:09;18.00;99.90
15262;DHT22;7733;51.554;13.590;2023-07-31T09:17:36;18.10;99.90
15262;DHT22;7733;51.554;13.590;2023-07-31T09:22:41;18.30;99.90
15262;DHT22;7733;51.554;13.590;2023-07-31T09:25:25;18.40;99.90
15262;DHT22;7733;51.554;13.590;2023-07-31T09:27:58;18.50;99.90
15262;DHT22;7733;51.554;13.590;2023-07-31T09:30:28;18.50;99.90
15262;DHT22;7733;51.554;13.590;2023-07-31T09:33:02;18.50;99.90
15262;DHT22;7733;51.554;13.590;2023-07-31T09:35:33;18.50;99.90
15262;DHT22;7733;51.554;13.590;2023-07-31T09:38:07;18.40;99.90
15262;DHT22;7733;51.554;13.590;2023-07-31T09:40:40;18.30;99.90
15262;DHT22;7733;51.554;13.590;2023-07-31T09:43:08;18.30;99.90
15262;DHT22;7733;51.554;13.590;2023-07-31T09:45:40;18.30;99.90
15262;DHT22;7733;51.554;13.590;2023-07-31T09:48:15;18.30;99.90
15262;DHT22;7733;51.554;13.590;2023-07-31T09:50:43;18.20;99.90
15262;DHT22;7733;51.554;13.590;2023-07-31T09:53:10;18.20;99.90
15262;DHT22;7733;51.554;13.590;2023-07-31T09:55:37;18.20;99.90
15262;DHT22;7733;51.554;13.590;2023-07-31T09:58:06;18.20;99.90
15262;DHT22;7733;51.554;13.590;2023-07-31T10:00:35;18.20;99.90
15262;DHT22;7733;51.554;13.590;2023-07-31T10:03:04;18.20;99.90
15262;DHT22;7733;51.554;13.590;2023-07-31T10:05:45;18.20;99.90
15262;DHT22;7733;51.554;13.590;2023-07-31T10:08:16;18.10;99.90
15262;DHT22;7733;51.554;13.590;2023-07-31T10:10:45;18.20;99.90
15262;DHT22;7733;51.554;13.590;2023-07-31T10:13:15;18.20;99.90
15262;DHT22;7733;51.554;13.590;2023-07-31T10:15:43;18.30;99.90
15262;DHT22;7733;51.554;13.590;2023-07-31T10:18:09;18.30;99.90
15262;DHT22;7733;51.554;13.590;2023-07-31T10:20:35;18.40;99.90
15262;DHT22;7733;51.554;13.590;2023-07-31T10:23:02;18.40;99.90
15262;DHT22;7733;51.554;13.590;2023-07-31T10:25:29;18.40;99.90
15262;DHT22;7733;51.554;13.590;2023-07-31T10:27:57;18.50;99.90
15262;DHT22;7733;51.554;13.590;2023-07-31T10:30:27;18.40;99.90
15262;DHT22;7733;51.554;13.590;2023-07-31T10:32:55;18.50;99.90
15262;DHT22;7733;51.554;13.590;2023-07-31T10:35:23;18.50;99.90
15262;DHT22;7733;51.554;13.590;2023-07-31T10:37:49;18.70;99.90
15262;DHT22;7733;51.554;13.590;2023-07-31T10:40:23;18.80;99.90
15262;DHT22;7733;51.554;13.590;2023-07-31T10:42:50;18.80;99.90
15262;DHT22;7733;51.554;13.590;2023-07-31T10:45:42;18.90;99.90
15262;DHT22;7733;51.554;13.590;2023-07-31T10:48:15;19.00;99.90
15262;DHT22;7733;51.554;13.590;2023-07-31T10:50:50;19.00;99.90
15262;DHT22;7733;51.554;13.590;2023-07-31T10:53:32;19.10;99.90
15262;DHT22;7733;51.554;13.590;2023-07-31T10:56:06;19.10;99.90
15262;DHT22;7733;51.554;13.590;2023-07-31T10:58:33;19.10;99.90
15262;DHT22;7733;51.554;13.590;2023-07-31T11:01:02;19.10;99.90
15262;DHT22;7733;51.554;13.590;2023-07-31T11:03:49;19.10;99.90
15262;DHT22;7733;51.554;13.590;2023-07-31T11:06:19;19.20;99.90
15262;DHT22;7733;51.554;13.590;2023-07-31T11:08:47;19.30;99.90
15262;DHT22;7733;51.554;13.590;2023-07-31T11:11:16;19.30;99.90
15262;DHT22;7733;51.554;13.590;2023-07-31T11:16:17;19.50;99.90
15262;DHT22;7733;51.554;13.590;2023-07-31T11:18:47;19.50;99.90
15262;DHT22;7733;51.554;13.590;2023-07-31T11:21:16;19.60;99.90
15262;DHT22;7733;51.554;13.590;2023-07-31T11:23:51;19.90;99.90
15262;DHT22;7733;51.554;13.590;2023-07-31T11:26:19;19.90;99.90
15262;DHT22;7733;51.554;13.590;2023-07-31T11:28:48;20.00;99.90
15262;DHT22;7733;51.554;13.590;2023-07-31T11:31:16;20.20;99.90
15262;DHT22;7733;51.554;13.590;2023-07-31T11:33:43;20.10;99.90
15262;DHT22;7733;51.554;13.590;2023-07-31T11:36:19;19.90;99.90
15262;DHT22;7733;51.554;13.590;2023-07-31T11:38:46;19.90;99.90
15262;DHT22;7733;51.554;13.590;2023-07-31T11:41:14;19.90;99.90
15262;DHT22;7733;51.554;13.590;2023-07-31T11:43:41;19.90;99.90
15262;DHT22;7733;51.554;13.590;2023-07-31T11:46:07;19.80;99.90
15262;DHT22;7733;51.554;13.590;2023-07-31T11:48:37;19.80;99.90
15262;DHT22;7733;51.554;13.590;2023-07-31T11:51:09;19.80;99.90
15262;DHT22;7733;51.554;13.590;2023-07-31T11:53:51;19.90;99.90
15262;DHT22;7733;51.554;13.590;2023-07-31T11:56:26;19.90;99.90
15262;DHT22;7733;51.554;13.590;2023-07-31T11:58:58;19.90;99.90
15262;DHT22;7733;51.554;13.590;2023-07-31T12:01:27;19.80;99.90
15262;DHT22;7733;51.554;13.590;2023-07-31T12:03:54;19.80;99.90
15262;DHT22;7733;51.554;13.590;2023-07-31T12:06:21;20.00;99.90
15262;DHT22;7733;51.554;13.590;2023-07-31T12:08:47;20.10;99.90
15262;DHT22;7733;51.554;13.590;2023-07-31T12:11:14;20.20;99.90
15262;DHT22;7733;51.554;13.590;2023-07-31T12:13:40;20.30;99.90
15262;DHT22;7733;51.554;13.590;2023-07-31T12:16:06;20.30;99.90
15262;DHT22;7733;51.554;13.590;2023-07-31T12:18:36;20.20;99.90
15262;DHT22;7733;51.554;13.590;2023-07-31T12:21:06;20.30;99.90
15262;DHT22;7733;51.554;13.590;2023-07-31T12:23:37;20.40;99.90
15262;DHT22;7733;51.554;13.590;2023-07-31T12:26:09;20.40;99.90
15262;DHT22;7733;51.554;13.590;2023-07-31T12:28:42;20.30;99.90
15262;DHT22;7733;51.554;13.590;2023-07-31T12:31:16;20.30;99.90
15262;DHT22;7733;51.554;13.590;2023-07-31T12:33:44;20.30;99.90
15262;DHT22;7733;51.554;13.590;2023-07-31T12:36:30;20.30;99.90
15262;DHT22;7733;51.554;13.590;2023-07-31T12:39:00;20.30;99.90
15262;DHT22;7733;51.554;13.590;2023-07-31T12:41:26;20.40;99.90
15262;DHT22;7733;51.554;13.590;2023-07-31T12:43:52;20.50;99.90
15262;DHT22;7733;51.554;13.590;2023-07-31T12:46:18;20.50;99.90
15262;DHT22;7733;51.554;13.590;2023-07-31T12:48:44;20.50;99.90
15262;DHT22;7733;51.554;13.590;2023-07-31T12:51:09;20.60;99.90
15262;DHT22;7733;51.554;13.590;2023-07-31T12:53:35;20.60;99.90
15262;DHT22;7733;51.554;13.590;2023-07-31T12:56:01;20.70;99.90
15262;DHT22;7733;51.554;13.590;2023-07-31T12:58:28;20.80;99.90
15262;DHT22;7733;51.554;13.590;2023-07-31T13:00:53;20.60;99.90
15262;DHT22;7733;51.554;13.590;2023-07-31T13:03:19;20.60;99.90
15262;DHT22;7733;51.554;13.590;2023-07-31T13:05:45;20.60;99.90
15262;DHT22;7733;51.554;13.590;2023-07-31T13:08:10;20.60;99.90
15262;DHT22;7733;51.554;13.590;2023-07-31T13:10:37;20.70;99.90
15262;DHT22;7733;51.554;13.590;2023-07-31T13:13:02;20.60;99.90
15262;DHT22;7733;51.554;13.590;2023-07-31T13:15:28;20.70;99.90
15262;DHT22;7733;51.554;13.590;2023-07-31T13:17:54;20.70;99.90
15262;DHT22;7733;51.554;13.590;2023-07-31T13:20:20;20.80;99.90
15262;DHT22;7733;51.554;13.590;2023-07-31T13:22:46;21.10;99.90
15262;DHT22;7733;51.554;13.590;2023-07-31T13:25:11;21.30;99.90
15262;DHT22;7733;51.554;13.590;2023-07-31T13:27:37;21.60;99.90
15262;DHT22;7733;51.554;13.590;2023-07-31T13:30:03;21.70;99.90
15262;DHT22;7733;51.554;13.590;2023-07-31T13:32:29;21.80;99.90
15262;DHT22;7733;51.554;13.590;2023-07-31T13:34:55;21.70;99.90
15262;DHT22;7733;51.554;13.590;2023-07-31T13:37:21;21.70;99.90
15262;DHT22;7733;51.554;13.590;2023-07-31T13:39:46;21.50;99.90
15262;DHT22;7733;51.554;13.590;2023-07-31T13:42:12;21.50;99.90
15262;DHT22;7733;51.554;13.590;2023-07-31T13:44:39;21.50;99.90
15262;DHT22;7733;51.554;13.590;2023-07-31T13:47:05;21.50;99.90
15262;DHT22;7733;51.554;13.590;2023-07-31T13:49:33;21.50;99.90
15262;DHT22;7733;51.554;13.590;2023-07-31T13:52:00;21.70;99.90
15262;DHT22;7733;51.554;13.590;2023-07-31T13:54:26;22.00;99.90
15262;DHT22;7733;51.554;13.590;2023-07-31T13:56:52;22.00;99.90
15262;DHT22;7733;51.554;13.590;2023-07-31T13:59:18;21.90;99.90
15262;DHT22;7733;51.554;13.590;2023-07-31T14:01:44;21.70;99.90
15262;DHT22;7733;51.554;13.590;2023-07-31T14:04:11;21.70;99.90
15262;DHT22;7733;51.554;13.590;2023-07-31T14:06:37;21.70;99.90
15262;DHT22;7733;51.554;13.590;2023-07-31T14:09:03;21.70;99.90
15262;DHT22;7733;51.554;13.590;2023-07-31T14:11:30;21.80;99.90
15262;DHT22;7733;51.554;13.590;2023-07-31T14:13:56;21.70;99.90
15262;DHT22;7733;51.554;13.590;2023-07-31T14:16:23;21.60;99.90
15262;DHT22;7733;51.554;13.590;2023-07-31T14:18:49;21.50;99.90
15262;DHT22;7733;51.554;13.590;2023-07-31T14:21:14;21.50;99.90
15262;DHT22;7733;51.554;13.590;2023-07-31T14:23:41;21.40;99.90
15262;DHT22;7733;51.554;13.590;2023-07-31T14:26:07;21.50;99.90
15262;DHT22;7733;51.554;13.590;2023-07-31T14:28:33;21.70;99.90
15262;DHT22;7733;51.554;13.590;2023-07-31T14:30:59;21.90;99.90
15262;DHT22;7733;51.554;13.590;2023-07-31T14:33:24;22.00;99.90
15262;DHT22;7733;51.554;13.590;2023-07-31T14:35:50;22.30;99.90
15262;DHT22;7733;51.554;13.590;2023-07-31T14:38:17;22.40;99.90
15262;DHT22;7733;51.554;13.590;2023-07-31T14:40:43;22.50;99.90
15262;DHT22;7733;51.554;13.590;2023-07-31T14:43:08;22.70;99.90
15262;DHT22;7733;51.554;13.590;2023-07-31T14:45:34;22.60;99.90
15262;DHT22;7733;51.554;13.590;2023-07-31T14:48:00;22.70;99.90
15262;DHT22;7733;51.554;13.590;2023-07-31T14:50:25;22.60;99.90
15262;DHT22;7733;51.554;13.590;2023-07-31T14:52:51;22.50;99.90
15262;DHT22;7733;51.554;13.590;2023-07-31T14:55:21;22.40;99.90
15262;DHT22;7733;51.554;13.590;2023-07-31T14:57:46;22.50;99.90
15262;DHT22;7733;51.554;13.590;2023-07-31T15:00:13;22.60;99.90
15262;DHT22;7733;51.554;13.590;2023-07-31T15:02:40;22.70;99.90
15262;DHT22;7733;51.554;13.590;2023-07-31T15:05:06;22.60;99.90
15262;DHT22;7733;51.554;13.590;2023-07-31T15:07:33;22.60;99.90
15262;DHT22;7733;51.554;13.590;2023-07-31T15:10:01;22.60;99.90
15262;DHT22;7733;51.554;13.590;2023-07-31T15:12:28;22.50;99.90
15262;DHT22;7733;51.554;13.590;2023-07-31T15:14:54;22.40;99.90
15262;DHT22;7733;51.554;13.590;2023-07-31T15:17:20;22.30;99.90
15262;DHT22;7733;51.554;13.590;2023-07-31T15:19:46;22.20;99.90
15262;DHT22;7733;51.554;13.590;2023-07-31T15:22:11;22.30;99.90
15262;DHT22;7733;51.554;13.590;2023-07-31T15:24:37;22.20;99.90
15262;DHT22;7733;51.554;13.590;2023-07-31T15:27:03;22.20;99.90
15262;DHT22;7733;51.554;13.590;2023-07-31T15:29:30;22.20;99.90
15262;DHT22;7733;51.554;13.590;2023-07-31T15:31:55;22.20;99.90
15262;DHT22;7733;51.554;13.590;2023-07-31T15:34:21;22.20;99.90
15262;DHT22;7733;51.554;13.590;2023-07-31T15:36:48;22.10;99.90
15262;DHT22;7733;51.554;13.590;2023-07-31T15:39:14;22.10;99.90
15262;DHT22;7733;51.554;13.590;2023-07-31T15:41:40;22.10;99.90